createdAt,value
2023-03-13T17:18:40.278Z,21.17
2023-03-13T17:21:12.382Z,19.70
2023-03-13T17:23:38.980Z,22.07
2023-03-13T17:26:15.136Z,17.90
2023-03-13T17:28:42.657Z,18.83
2023-03-13T17:31:12.477Z,18.53
2023-03-13T17:33:40.718Z,19.60
2023-03-13T17:36:16.004Z,18.90
2023-03-13T17:38:43.051Z,15.40
2023-03-13T17:41:12.173Z,19.33
2023-03-13T17:43:39.557Z,15.30
2023-03-13T17:46:15.819Z,15.87
2023-03-13T17:48:42.505Z,14.67
2023-03-13T17:51:18.149Z,16.50
2023-03-13T17:53:44.878Z,15.57
2023-03-13T17:56:18.948Z,14.93
2023-03-13T17:58:46.860Z,16.17
2023-03-13T18:01:14.666Z,13.20
2023-03-13T18:03:42.265Z,12.77
2023-03-13T18:06:27.544Z,14.33
2023-03-13T18:08:56.590Z,11.33
2023-03-13T18:11:25.176Z,12.20
2023-03-13T18:13:52.578Z,15.17
2023-03-13T18:16:30.326Z,12.03
2023-03-13T18:18:57.283Z,11.90
2023-03-13T18:21:24.254Z,13.50
2023-03-13T18:23:52.063Z,12.27
2023-03-13T18:26:32.528Z,11.47
2023-03-13T18:29:00.700Z,8.90
2023-03-13T18:31:36.672Z,11.67
2023-03-13T18:34:04.749Z,10.57
2023-03-13T18:36:31.924Z,10.30
2023-03-13T18:38:59.068Z,9.50
2023-03-13T18:41:26.100Z,9.33
2023-03-13T18:43:52.672Z,10.20
2023-03-13T18:46:26.640Z,10.23
2023-03-13T18:48:54.056Z,10.33
2023-03-13T18:51:24.722Z,8.13
2023-03-13T18:53:52.617Z,8.13
2023-03-13T18:56:23.936Z,6.07
2023-03-13T18:58:52.268Z,9.70
2023-03-13T19:01:21.672Z,10.57
2023-03-13T19:03:48.965Z,20.27
2023-03-13T19:06:27.590Z,23.87
2023-03-13T19:08:59.436Z,21.70
2023-03-13T19:11:29.045Z,20.50
2023-03-13T19:13:56.505Z,21.80
2023-03-13T19:16:35.071Z,21.10
2023-03-13T19:19:02.354Z,21.63
2023-03-13T19:21:30.836Z,17.97
2023-03-13T19:23:57.796Z,20.23
2023-03-13T19:26:39.336Z,18.77
2023-03-13T19:29:15.665Z,16.50
2023-03-13T19:31:42.591Z,17.70
2023-03-13T19:34:09.728Z,17.10
2023-03-13T19:36:39.653Z,18.43
2023-03-13T19:39:14.022Z,17.40
2023-03-13T19:41:40.884Z,15.37
2023-03-13T19:44:07.751Z,14.83
2023-03-13T19:46:35.489Z,13.83
2023-03-13T19:49:02.282Z,16.47
2023-03-13T19:51:30.248Z,14.87
2023-03-13T19:53:57.299Z,12.80
2023-03-13T19:56:28.470Z,13.73
2023-03-13T19:59:06.349Z,10.47
2023-03-13T20:01:33.093Z,10.83
2023-03-13T20:03:59.697Z,11.70
2023-03-13T20:06:29.184Z,9.80
2023-03-13T20:08:57.696Z,10.10
2023-03-13T20:11:25.324Z,36.87
2023-03-13T20:13:52.154Z,44.53
2023-03-13T20:16:19.051Z,59.87
2023-03-13T20:18:48.517Z,58.90
2023-03-13T20:21:16.482Z,59.90
2023-03-13T20:23:48.545Z,59.73
2023-03-13T20:26:17.624Z,54.40
2023-03-13T20:28:48.532Z,51.57
2023-03-13T20:31:17.322Z,46.97
2023-03-13T20:33:44.006Z,47.97
2023-03-13T20:36:12.965Z,40.70
2023-03-13T20:38:41.029Z,38.10
2023-03-13T20:41:08.309Z,30.70
2023-03-13T20:43:36.831Z,31.73
2023-03-13T20:46:04.683Z,26.87
2023-03-13T20:48:31.266Z,20.60
2023-03-13T20:51:00.152Z,21.60
2023-03-13T20:53:27.506Z,24.23
2023-03-13T20:55:56.846Z,18.40
2023-03-13T20:58:24.010Z,19.33
2023-03-13T21:00:50.625Z,18.50
2023-03-13T21:03:18.744Z,19.83
2023-03-13T21:05:45.549Z,38.60
2023-03-13T21:08:12.316Z,41.23
2023-03-13T21:10:40.859Z,33.90
2023-03-13T21:13:09.181Z,34.77
2023-03-13T21:15:36.211Z,18.00
2023-03-13T21:18:04.117Z,19.13
2023-03-13T21:20:31.415Z,19.67
2023-03-13T21:22:58.012Z,15.33
2023-03-13T21:25:24.789Z,15.90
2023-03-13T21:27:51.365Z,16.30
2023-03-13T21:30:20.545Z,16.10
2023-03-13T21:32:48.468Z,16.00
2023-03-13T21:35:16.664Z,14.47
2023-03-13T21:37:43.919Z,12.73
2023-03-13T21:40:11.590Z,14.47
2023-03-13T21:42:38.251Z,12.10
2023-03-13T21:45:05.781Z,15.87
2023-03-13T21:47:36.657Z,11.73
2023-03-13T21:50:06.326Z,11.20
2023-03-13T21:52:38.038Z,30.73
2023-03-13T21:55:09.815Z,46.03
2023-03-13T21:57:36.400Z,40.50
2023-03-13T22:00:06.031Z,36.07
2023-03-13T22:02:32.594Z,33.13
2023-03-13T22:04:59.237Z,32.17
2023-03-13T22:07:25.844Z,30.77
2023-03-13T22:09:52.412Z,30.67
2023-03-13T22:12:19.108Z,29.43
2023-03-13T22:14:45.697Z,28.73
2023-03-13T22:17:19.226Z,26.40
2023-03-13T22:19:49.308Z,26.67
2023-03-13T22:22:17.092Z,24.87
2023-03-13T22:24:43.651Z,25.73
2023-03-13T22:27:10.343Z,25.03
2023-03-13T22:29:36.993Z,23.73
2023-03-13T22:32:04.352Z,22.40
2023-03-13T22:34:31.029Z,20.47
2023-03-13T22:36:57.573Z,21.07
2023-03-13T22:39:24.243Z,20.07
2023-03-13T22:41:50.905Z,20.40
2023-03-13T22:44:17.468Z,18.53
2023-03-13T22:46:44.044Z,11.97
2023-03-13T22:49:10.616Z,13.83
2023-03-13T22:51:37.198Z,13.63
2023-03-13T22:54:03.880Z,14.50
2023-03-13T22:56:30.457Z,13.33
